Skip Navigation Links
NOAA logo - Click to go to the NOAA homepage
NOAA's National Weather Service
Alaska Aviation Weather Unit
  NWS logo - Click to go to the NWS homepage
Left Navbar Graphic     01 AKDT = 09 GMT

   
NOAA is celebrating 200 years of science, service, and stewardship. Visit the NOAA 200th celebration Web site to learn more.
USA.gov is the U.S. Government's official Web portal to all Federal, state and local government Web resources and services.
Facebook
NWS on Facebook

Important Change Regarding the AAWU Web Presence

 

Over the last several months, the AAWU has been working to navigate its webpages to a nationally supported server. Security, as well as other needs, have necessitated the change.  We have been given an extension for the site changeover while we diligently work at addressing feedback received. As of July 14, 2017, aawu.arh.noaa.gov will be discontinued. The new AAWU web address is weather.gov/aawu. It is now live and will run in-parallel with the old site until it is discontinued on July 14, 2017. Please continue to send any feedback or questions regarding the new webpages to nws.ar.aawu.webauthors@noaa.gov.  Thank you for your patience during this time of transition.
AAWU Home :: Display TAF Add Bookmark
SPECI PAGM 190326Z AUTO 07010KT 7SM -RA SCT023 BKN028 OVC037 07/05 A2981
     RMK AO2 P0000=

SPECI PAGM 190336Z AUTO 07009KT 5SM -RA BR FEW013 SCT023 OVC030
 07/05 A2981 RMK AO2 P0001=

SPECI PAGM 190344Z AUTO 06013KT 6SM -RA BR BKN013 BKN023 OVC029 07/05
     A2981 RMK AO2 P0001=

METAR PAGM 190356Z AUTO 06015KT 9SM -RA BKN013 OVC029 06/04 A2980
 RMK AO2 SLP099 P0001 T00610044=

PAGM 190425Z AUTO 06015KT 4SM -RA BR OVC015 06/04 A2981 RMK AO2
     P0001=

SPECI PAGM 190445Z AUTO 06016G20KT 4SM -RA BR OVC013 06/04 A2981 RMK AO2
     P0003=

METAR PAGM 190456Z AUTO 06018KT 5SM -RA BR OVC013 06/04 A2981 RMK AO2
     SLP100 P0003 T00560044=

SPECI PAGM 190506Z AUTO 05017KT 5SM -RA BR OVC015 06/04 A2981 RMK AO2
     P0001=

SPECI PAGM 190508Z AUTO 05019KT 5SM -RA BR FEW009 OVC017 06/04 A2981 RMK
     AO2 P0001=

SPECI PAGM 190518Z AUTO 05016KT 7SM -RA BKN009 OVC017 05/04 A2981 RMK
     AO2 P0001=

METAR PAGM 190556Z AUTO 05017KT 5SM -RA BR OVC009 05/04 A2983 RMK
 AO2 SLP106 P0002 60006 T00500039 10089 20050 53004=

SPECI PAGM 190609Z AUTO 05017KT 4SM -RA BR OVC011 05/04 A2983 RMK AO2
     P0000=

SPECI PAGM 190632Z AUTO 05016KT 10SM FEW008 BKN015 OVC022 05/04 A2983
     RMK AO2 RAE28 P0000=

METAR PAGM 190656Z AUTO 06013KT 10SM FEW007 BKN020 OVC025 05/04
 A2984 RMK AO2 RAE28 SLP111 P0000 T00500039=

METAR PAGM 190756Z AUTO 05011KT 10SM OVC026 06/03 A2985 RMK AO2 SLP115
     T00560028=

SPECI PAGM 190836Z AUTO 06007KT 10SM -RA BKN030 OVC046 06/02 A2986
 RMK AO2 RAB13 P0000=

METAR PAGM 190856Z AUTO 05005KT 10SM FEW030 OVC041 06/02 A2986 RMK AO2
     RAB13E43 SLP120 P0000 60000 T00610022 400940050 51013=


NOAA's National Weather Service
Alaska Aviation Weather Unit
6930 Sand Lake Road
Anchorage, AK 99502-1845
Disclaimer
Credits
Glossary
Privacy Policy
About Us
Career Opportunities
Contact AAWU Internet Services Site last modified: April, 17th 2012